createdAt,value
2023-08-02T00:01:53.612Z,16.97
2023-08-02T00:04:21.109Z,16.93
2023-08-02T00:06:48.620Z,16.90
2023-08-02T00:09:15.672Z,16.89
2023-08-02T00:11:42.997Z,16.88
2023-08-02T00:14:09.950Z,16.89
2023-08-02T00:16:37.132Z,16.90
2023-08-02T00:19:04.301Z,16.89
2023-08-02T00:21:31.896Z,16.88
2023-08-02T00:24:00.083Z,16.85
2023-08-02T00:26:28.451Z,16.85
2023-08-02T00:28:55.271Z,16.83
2023-08-02T00:31:22.450Z,16.82
2023-08-02T00:33:49.362Z,16.84
2023-08-02T00:36:16.524Z,16.82
2023-08-02T00:38:43.484Z,16.85
2023-08-02T00:41:10.800Z,16.83
2023-08-02T00:43:41.603Z,16.83
2023-08-02T00:46:14.966Z,16.82
2023-08-02T00:48:43.588Z,16.83
2023-08-02T00:51:18.388Z,16.81
2023-08-02T00:53:46.426Z,16.83
2023-08-02T00:56:16.593Z,16.82
2023-08-02T00:58:44.898Z,16.85
2023-08-02T01:01:12.112Z,16.86
2023-08-02T01:03:42.126Z,16.86
2023-08-02T01:06:09.407Z,16.85
2023-08-02T01:08:39.718Z,16.86
2023-08-02T01:11:14.181Z,16.83
2023-08-02T01:13:47.161Z,16.86
2023-08-02T01:16:17.054Z,16.86
2023-08-02T01:18:44.000Z,16.86
2023-08-02T02:36:19.981Z,16.37
2023-08-02T02:38:46.867Z,16.35
2023-08-02T02:41:13.985Z,16.35
2023-08-02T02:43:40.909Z,16.37
2023-08-02T02:46:08.221Z,16.36
2023-08-02T02:48:35.109Z,16.28
2023-08-02T02:51:02.385Z,16.28
2023-08-02T02:53:29.327Z,16.26
2023-08-02T02:55:57.541Z,16.23
2023-08-02T02:58:24.514Z,16.24
2023-08-02T03:00:51.805Z,16.22
2023-08-02T03:03:18.782Z,16.21
2023-08-02T03:05:45.975Z,16.21
2023-08-02T03:08:12.891Z,16.22
2023-08-02T03:10:40.107Z,16.25
2023-08-02T03:13:06.997Z,16.25
2023-08-02T03:15:34.149Z,16.23
2023-08-02T03:18:01.133Z,16.19
2023-08-02T03:20:28.371Z,16.19
2023-08-02T03:22:55.329Z,16.21
2023-08-02T03:25:22.480Z,16.21
2023-08-02T03:27:49.406Z,16.21
2023-08-02T03:30:16.751Z,16.20
2023-08-02T03:32:43.761Z,16.21
2023-08-02T03:35:11.024Z,16.21
2023-08-02T03:37:38.001Z,16.22
2023-08-02T03:40:05.533Z,16.20
2023-08-02T03:42:32.491Z,16.19
2023-08-02T03:44:59.697Z,16.19
2023-08-02T03:47:26.605Z,16.19
2023-08-02T03:49:53.776Z,16.17
2023-08-02T03:52:20.739Z,16.16
2023-08-02T03:54:48.839Z,16.16
2023-08-02T03:57:15.793Z,16.16
2023-08-02T03:59:43.003Z,16.13
2023-08-02T04:02:09.942Z,16.14
2023-08-02T04:04:37.193Z,16.14
2023-08-02T04:07:05.108Z,16.16
2023-08-02T04:09:33.604Z,16.18
2023-08-02T04:12:00.525Z,16.20
2023-08-02T04:14:28.022Z,16.20
2023-08-02T04:16:54.981Z,16.22
2023-08-02T04:19:22.123Z,16.24
2023-08-02T04:21:49.310Z,16.28
2023-08-02T04:24:16.479Z,16.28
2023-08-02T04:26:43.695Z,16.29
2023-08-02T04:29:11.093Z,16.29
2023-08-02T04:31:38.095Z,16.30
2023-08-02T04:34:06.724Z,16.30
2023-08-02T04:36:33.839Z,16.34
2023-08-02T04:39:03.542Z,16.34
2023-08-02T04:41:31.040Z,16.31
2023-08-02T04:43:58.220Z,16.33
2023-08-02T04:46:28.030Z,16.35
2023-08-02T04:48:55.284Z,16.35
2023-08-02T04:51:22.498Z,16.33
2023-08-02T04:53:49.756Z,16.35
2023-08-02T04:56:17.954Z,16.33
2023-08-02T04:58:45.558Z,16.32
2023-08-02T05:01:12.517Z,16.31
2023-08-02T05:03:39.788Z,16.33
2023-08-02T05:06:07.390Z,16.33
2023-08-02T05:08:37.315Z,16.33
2023-08-02T05:11:08.717Z,16.37
2023-08-02T05:13:36.393Z,16.43
2023-08-02T05:16:03.886Z,16.47
2023-08-02T05:18:31.296Z,16.52
2023-08-02T05:20:59.317Z,16.53
2023-08-02T05:23:26.507Z,16.53
2023-08-02T05:25:55.902Z,16.59
2023-08-02T05:28:23.451Z,16.64
2023-08-02T05:30:50.356Z,16.71
2023-08-02T05:33:17.585Z,16.80
2023-08-02T05:35:44.735Z,16.87
2023-08-02T05:38:12.254Z,16.92
2023-08-02T05:40:39.213Z,16.95
2023-08-02T05:43:07.614Z,16.95
2023-08-02T05:45:35.716Z,16.95
2023-08-02T05:48:03.147Z,16.95
2023-08-02T05:50:30.651Z,17.02
2023-08-02T05:52:57.809Z,17.09
2023-08-02T05:55:24.772Z,17.15
2023-08-02T05:57:52.744Z,17.24
2023-08-02T06:00:19.714Z,17.27
2023-08-02T06:02:46.888Z,17.33
2023-08-02T06:05:13.866Z,17.38
2023-08-02T06:07:41.033Z,17.38
2023-08-02T06:10:08.254Z,17.39
2023-08-02T06:12:35.810Z,17.34
2023-08-02T06:15:02.802Z,17.39
2023-08-02T06:17:31.584Z,17.44
2023-08-02T06:19:58.506Z,17.49
2023-08-02T06:22:25.735Z,17.51
2023-08-02T06:24:52.636Z,17.49
2023-08-02T06:27:19.882Z,17.50
2023-08-02T06:29:46.819Z,17.53
2023-08-02T06:32:14.020Z,17.62
2023-08-02T06:34:40.960Z,17.75
2023-08-02T06:37:08.094Z,17.90
2023-08-02T06:39:35.038Z,18.07
2023-08-02T06:42:02.526Z,18.23
2023-08-02T06:44:29.575Z,18.43
2023-08-02T06:46:56.875Z,18.74
2023-08-02T06:49:23.826Z,19.47
2023-08-02T06:51:51.020Z,20.37
2023-08-02T06:54:17.912Z,21.37
2023-08-02T06:56:45.121Z,22.10
2023-08-02T06:59:12.058Z,22.42
2023-08-02T07:01:39.338Z,22.38
2023-08-02T07:04:06.863Z,22.38
2023-08-02T07:06:34.095Z,22.20
2023-08-02T07:09:01.014Z,21.99
2023-08-02T07:11:46.142Z,21.75
2023-08-02T07:14:13.172Z,21.34
2023-08-02T07:16:40.507Z,21.04
2023-08-02T07:19:07.461Z,20.93
2023-08-02T07:21:34.693Z,21.03
2023-08-02T07:24:01.838Z,21.12
2023-08-02T07:26:28.770Z,21.40
2023-08-02T07:28:56.005Z,21.69
2023-08-02T07:31:22.978Z,21.92
2023-08-02T07:33:50.294Z,22.29
2023-08-02T07:36:19.739Z,22.74
2023-08-02T07:38:47.657Z,22.99
2023-08-02T07:41:14.756Z,23.11
2023-08-02T07:43:41.986Z,22.89
2023-08-02T07:46:20.131Z,23.00
2023-08-02T07:48:47.581Z,23.90
2023-08-02T07:51:14.553Z,24.58
2023-08-02T07:53:41.765Z,25.11
2023-08-02T07:56:08.715Z,25.55
2023-08-02T07:58:36.010Z,25.32
2023-08-02T08:01:09.639Z,24.82
2023-08-02T08:03:37.518Z,24.56
2023-08-02T08:06:15.674Z,24.40
2023-08-02T08:08:44.334Z,24.98
2023-08-02T08:11:11.598Z,25.48
2023-08-02T08:13:38.886Z,26.32
2023-08-02T08:16:06.019Z,27.22
2023-08-02T08:18:33.962Z,26.98
2023-08-02T08:21:05.503Z,26.96
2023-08-02T08:23:34.660Z,27.63
2023-08-02T08:26:01.708Z,28.48
2023-08-02T08:28:29.233Z,28.57
2023-08-02T08:31:05.671Z,28.23
2023-08-02T08:33:33.374Z,28.86
2023-08-02T08:36:00.366Z,29.34
2023-08-02T08:38:27.707Z,28.80
2023-08-02T08:40:56.222Z,28.69
2023-08-02T08:43:29.400Z,28.46
2023-08-02T08:45:57.813Z,29.19
2023-08-02T08:48:26.528Z,29.60
2023-08-02T08:50:56.620Z,29.71
2023-08-02T08:53:34.613Z,30.04
2023-08-02T08:56:03.786Z,30.61
2023-08-02T08:58:33.243Z,30.93
2023-08-02T09:01:01.335Z,31.05
2023-08-02T09:03:28.621Z,31.24
2023-08-02T09:06:02.497Z,30.97
2023-08-02T09:08:30.584Z,30.49
2023-08-02T09:10:58.819Z,30.26
2023-08-02T09:13:28.398Z,30.19
2023-08-02T09:16:14.420Z,29.98
2023-08-02T09:18:44.234Z,30.36
2023-08-02T09:21:14.399Z,30.67
2023-08-02T09:23:56.511Z,31.42
2023-08-02T09:26:23.550Z,31.98
2023-08-02T09:29:17.173Z,31.88
2023-08-02T09:31:54.289Z,31.69
2023-08-02T09:34:21.769Z,30.89
2023-08-02T09:36:48.826Z,30.66
2023-08-02T09:39:16.730Z,30.71
2023-08-02T09:41:58.947Z,30.05
2023-08-02T09:44:27.666Z,30.19
2023-08-02T09:46:54.573Z,31.02
2023-08-02T09:49:23.796Z,31.87
2023-08-02T09:51:52.434Z,31.52
2023-08-02T09:54:19.744Z,31.14
2023-08-02T09:56:47.873Z,30.59
2023-08-02T09:59:17.274Z,29.68
2023-08-02T10:01:44.668Z,29.28
2023-08-02T10:04:15.736Z,29.17
2023-08-02T10:06:48.475Z,30.00
2023-08-02T10:09:21.047Z,30.23
2023-08-02T10:11:50.937Z,30.69
2023-08-02T10:14:19.383Z,31.53
2023-08-02T10:16:46.877Z,32.24
2023-08-02T10:19:14.494Z,33.41
2023-08-02T10:21:41.889Z,34.40
2023-08-02T10:24:10.799Z,34.71
2023-08-02T10:26:37.848Z,33.82
2023-08-02T10:29:06.133Z,33.03
2023-08-02T10:31:33.146Z,31.59
2023-08-02T10:34:00.360Z,30.95
2023-08-02T10:36:27.390Z,31.10
2023-08-02T10:38:58.719Z,30.71
2023-08-02T10:41:28.179Z,30.24
2023-08-02T10:43:55.524Z,29.41
2023-08-02T10:46:27.995Z,28.45
2023-08-02T10:49:16.199Z,27.56
2023-08-02T10:51:44.958Z,27.15
2023-08-02T10:54:27.127Z,26.82
2023-08-02T10:56:58.335Z,26.49
2023-08-02T10:59:25.666Z,26.23
2023-08-02T11:02:13.150Z,26.04
2023-08-02T11:04:46.343Z,26.02
2023-08-02T11:07:19.596Z,25.99
2023-08-02T11:09:48.436Z,26.01
2023-08-02T11:12:20.352Z,26.40
2023-08-02T11:14:50.790Z,27.52
2023-08-02T11:22:27.289Z,28.97
2023-08-02T11:24:55.887Z,28.43
2023-08-02T11:27:25.141Z,28.17
2023-08-02T11:30:08.053Z,27.87
2023-08-02T11:32:43.442Z,27.11
2023-08-02T11:35:18.968Z,26.46
2023-08-02T11:37:46.314Z,26.47
2023-08-02T11:40:25.458Z,26.86
2023-08-02T11:42:56.079Z,27.78
2023-08-02T11:45:34.243Z,28.81
2023-08-02T11:50:33.464Z,30.84
2023-08-02T11:53:11.107Z,31.19
2023-08-02T11:55:39.902Z,31.02
2023-08-02T11:58:10.588Z,31.37
2023-08-02T12:00:40.470Z,31.87
2023-08-02T12:03:15.784Z,32.17
2023-08-02T12:05:45.242Z,32.17
2023-08-02T12:08:14.860Z,31.95
2023-08-02T12:10:43.446Z,31.66
2023-08-02T12:13:12.312Z,31.37
2023-08-02T12:15:40.012Z,30.84
2023-08-02T12:18:08.271Z,30.54
2023-08-02T12:20:36.084Z,30.14
2023-08-02T12:23:03.094Z,30.12
2023-08-02T12:25:47.382Z,30.00
2023-08-02T12:28:15.007Z,30.14
2023-08-02T12:30:42.301Z,30.52
2023-08-02T12:33:09.347Z,31.01
2023-08-02T12:35:37.951Z,31.45
2023-08-02T12:38:04.876Z,31.75
2023-08-02T12:40:32.073Z,31.92
2023-08-02T12:43:03.296Z,31.87
2023-08-02T12:45:31.595Z,31.65
2023-08-02T12:47:58.471Z,31.27
2023-08-02T12:50:28.094Z,30.75
2023-08-02T12:52:55.899Z,30.36
2023-08-02T12:55:23.082Z,29.98
2023-08-02T12:57:49.915Z,29.72
2023-08-02T13:00:17.393Z,29.47
2023-08-02T13:02:44.633Z,29.20
2023-08-02T13:05:11.894Z,29.08
2023-08-02T13:07:44.136Z,28.85
2023-08-02T13:10:12.408Z,28.61
2023-08-02T13:12:39.781Z,28.48
2023-08-02T13:15:07.717Z,28.54
2023-08-02T13:17:36.844Z,28.74
2023-08-02T13:20:05.696Z,28.93
2023-08-02T13:22:32.721Z,29.09
2023-08-02T13:25:01.608Z,29.04
2023-08-02T13:27:28.807Z,29.14
2023-08-02T13:30:00.098Z,29.10
2023-08-02T13:32:27.887Z,28.79
2023-08-02T13:34:56.214Z,28.71
2023-08-02T13:37:25.408Z,28.56
2023-08-02T13:39:52.612Z,28.28
2023-08-02T13:42:19.578Z,27.92
2023-08-02T13:44:46.727Z,27.79
2023-08-02T13:47:13.762Z,27.90
2023-08-02T13:49:40.941Z,28.13
2023-08-02T13:52:08.022Z,28.17
2023-08-02T13:54:35.182Z,28.01
2023-08-02T13:57:02.012Z,27.93
2023-08-02T13:59:29.368Z,27.85
2023-08-02T14:01:56.284Z,27.86
2023-08-02T14:04:23.531Z,27.82
2023-08-02T14:06:50.942Z,27.59
2023-08-02T14:09:18.308Z,27.36
2023-08-02T14:11:45.170Z,27.22
2023-08-02T14:14:12.356Z,27.03
2023-08-02T14:16:39.306Z,26.88
2023-08-02T14:19:06.891Z,27.01
2023-08-02T14:21:33.757Z,27.30
2023-08-02T14:24:00.938Z,27.66
2023-08-02T14:26:27.819Z,27.89
2023-08-02T14:28:55.030Z,28.11
2023-08-02T14:31:22.599Z,28.35
2023-08-02T14:33:49.766Z,28.49
2023-08-02T14:36:16.671Z,28.53
2023-08-02T14:38:43.863Z,28.55
2023-08-02T14:41:10.863Z,28.48
2023-08-02T14:43:38.099Z,28.23
2023-08-02T14:46:05.088Z,27.69
2023-08-02T14:48:32.194Z,27.44
2023-08-02T14:50:59.125Z,27.40
2023-08-02T14:53:26.463Z,27.28
2023-08-02T14:55:53.376Z,27.30
2023-08-02T14:58:20.608Z,27.40
2023-08-02T15:00:47.592Z,27.53
2023-08-02T15:03:14.853Z,27.57
2023-08-02T15:05:42.547Z,27.43
2023-08-02T15:08:09.906Z,27.26
2023-08-02T15:10:36.846Z,27.28
2023-08-02T15:13:04.260Z,27.37
2023-08-02T15:15:31.161Z,27.45
2023-08-02T15:17:58.381Z,27.44
2023-08-02T15:20:25.553Z,27.48
2023-08-02T15:22:52.840Z,27.55
2023-08-02T15:25:19.824Z,27.54
2023-08-02T15:27:47.039Z,27.47
2023-08-02T15:30:15.515Z,27.29
2023-08-02T15:32:42.759Z,27.13
2023-08-02T15:35:09.709Z,26.87
2023-08-02T15:37:37.033Z,26.64
2023-08-02T15:40:04.939Z,26.48
2023-08-02T15:42:32.703Z,26.36
2023-08-02T15:45:01.877Z,26.37
2023-08-02T15:47:30.523Z,26.34
2023-08-02T15:49:58.643Z,26.36
2023-08-02T15:52:25.879Z,26.40
2023-08-02T15:54:52.766Z,26.42
2023-08-02T15:57:19.975Z,26.37
2023-08-02T15:59:46.843Z,26.32
2023-08-02T16:02:14.024Z,26.25
2023-08-02T16:04:42.496Z,26.24
2023-08-02T16:07:09.643Z,26.26
2023-08-02T16:09:36.697Z,26.26
2023-08-02T16:12:04.219Z,26.18
2023-08-02T16:14:31.189Z,26.09
2023-08-02T16:16:58.381Z,25.86
2023-08-02T16:19:25.288Z,25.69
2023-08-02T16:21:52.553Z,25.64
2023-08-02T16:24:20.198Z,25.54
2023-08-02T16:26:47.632Z,25.43
2023-08-02T16:29:14.793Z,25.41
2023-08-02T16:31:42.214Z,25.44
2023-08-02T16:34:09.976Z,25.41
2023-08-02T16:36:37.817Z,25.35
2023-08-02T16:39:05.042Z,25.30
2023-08-02T16:41:32.208Z,25.28
2023-08-02T16:43:59.105Z,25.28
2023-08-02T16:46:30.189Z,25.30
2023-08-02T16:49:01.121Z,25.29
2023-08-02T16:51:28.469Z,25.22
2023-08-02T16:53:55.319Z,25.12
2023-08-02T16:56:23.931Z,24.98
2023-08-02T16:58:51.023Z,24.82
2023-08-02T17:01:18.300Z,24.73
2023-08-02T17:03:45.679Z,24.61
2023-08-02T17:06:13.463Z,24.42
2023-08-02T17:08:40.498Z,24.32
2023-08-02T17:11:07.644Z,24.24
2023-08-02T17:13:34.615Z,24.15
2023-08-02T17:16:04.211Z,24.06
2023-08-02T17:18:31.200Z,23.97
2023-08-02T17:20:58.368Z,23.89
2023-08-02T17:23:25.436Z,23.75
2023-08-02T17:25:52.686Z,23.69
2023-08-02T17:28:19.602Z,23.65
2023-08-02T17:30:46.888Z,23.65
2023-08-02T17:33:14.010Z,23.66
2023-08-02T17:35:41.272Z,23.66
2023-08-02T17:38:08.186Z,23.61
2023-08-02T17:40:35.644Z,23.57
2023-08-02T17:43:02.548Z,23.52
2023-08-02T17:45:32.722Z,23.46
2023-08-02T17:47:59.929Z,23.35
2023-08-02T17:50:27.126Z,23.30
2023-08-02T17:52:54.002Z,23.22
2023-08-02T17:55:23.337Z,23.15
2023-08-02T17:57:50.146Z,22.97
2023-08-02T18:00:19.682Z,22.91
2023-08-02T18:02:46.684Z,22.77
2023-08-02T18:05:14.200Z,22.63
2023-08-02T18:07:41.117Z,22.54
2023-08-02T18:10:08.564Z,22.44
2023-08-02T18:12:35.571Z,22.31
2023-08-02T18:15:02.848Z,22.20
2023-08-02T18:17:29.874Z,22.09
2023-08-02T18:19:57.151Z,21.99
2023-08-02T18:22:24.048Z,21.89
2023-08-02T18:24:52.715Z,21.81
2023-08-02T18:27:19.829Z,21.73
2023-08-02T18:29:47.069Z,21.67
2023-08-02T18:32:13.952Z,21.60
2023-08-02T18:34:41.141Z,21.51
2023-08-02T18:37:08.036Z,21.42
2023-08-02T18:39:36.282Z,21.31
2023-08-02T18:42:03.786Z,21.25
2023-08-02T18:44:31.017Z,21.17
2023-08-02T18:46:57.897Z,21.14
2023-08-02T18:49:25.120Z,21.07
2023-08-02T18:51:52.520Z,20.89
2023-08-02T18:54:20.746Z,20.76
2023-08-02T18:56:47.707Z,20.70
2023-08-02T18:59:15.061Z,20.66
2023-08-02T19:01:45.541Z,20.61
2023-08-02T19:04:13.032Z,20.58
2023-08-02T19:06:40.977Z,20.55
2023-08-02T19:09:09.199Z,20.52
2023-08-02T19:11:36.240Z,20.45
2023-08-02T19:14:04.486Z,20.39
2023-08-02T19:16:31.765Z,20.35
2023-08-02T19:19:00.606Z,20.33
2023-08-02T19:21:27.841Z,20.27
2023-08-02T19:23:55.075Z,20.17
2023-08-02T19:26:22.706Z,20.13
2023-08-02T19:28:53.409Z,20.07
2023-08-02T19:31:39.399Z,19.94
2023-08-02T19:34:09.603Z,19.78
2023-08-02T19:36:36.562Z,19.71
2023-08-02T19:39:06.722Z,19.64
2023-08-02T19:41:33.672Z,19.55
2023-08-02T19:44:00.892Z,19.45
2023-08-02T19:46:28.142Z,19.37
2023-08-02T19:48:55.871Z,19.25
2023-08-02T19:51:22.823Z,19.14
2023-08-02T19:53:50.529Z,19.03
2023-08-02T19:56:23.110Z,18.88
2023-08-02T19:58:53.237Z,18.64
2023-08-02T20:01:20.248Z,18.33
2023-08-02T20:03:47.653Z,17.99
2023-08-02T20:06:14.913Z,17.79
2023-08-02T20:08:42.096Z,17.61
2023-08-02T20:11:09.315Z,17.41
2023-08-02T20:13:42.174Z,17.25
2023-08-02T20:16:17.688Z,17.11
2023-08-02T20:18:46.797Z,17.06
2023-08-02T20:21:21.868Z,17.02
2023-08-02T20:24:00.561Z,16.98
2023-08-02T20:26:28.068Z,16.93
2023-08-02T20:28:56.626Z,16.90
2023-08-02T20:31:26.495Z,16.88
2023-08-02T20:33:55.244Z,16.86
2023-08-02T20:36:25.252Z,16.87
2023-08-02T20:38:55.086Z,16.88
2023-08-02T20:41:24.636Z,16.91
2023-08-02T20:43:54.578Z,16.93
2023-08-02T20:46:24.446Z,16.95
2023-08-02T20:48:55.900Z,16.95
2023-08-02T20:51:23.355Z,16.96
2023-08-02T20:53:50.550Z,16.97
2023-08-02T20:56:20.944Z,16.96
2023-08-02T20:58:48.266Z,16.94
2023-08-02T21:01:15.987Z,16.92
2023-08-02T21:03:43.882Z,16.91
2023-08-02T21:06:12.242Z,16.92
2023-08-02T21:08:44.306Z,16.93
2023-08-02T21:11:11.511Z,17.00
2023-08-02T21:13:38.745Z,17.06
2023-08-02T21:16:05.747Z,17.08
2023-08-02T21:18:34.749Z,17.10
2023-08-02T21:21:01.928Z,17.09
2023-08-02T21:23:30.369Z,17.10
2023-08-02T21:25:58.432Z,17.08
2023-08-02T21:28:28.213Z,17.06
2023-08-02T21:31:01.580Z,17.02
2023-08-02T21:33:31.463Z,17.03
2023-08-02T21:36:00.367Z,17.02
2023-08-02T21:38:30.450Z,17.01
2023-08-02T21:41:02.193Z,16.96
2023-08-02T21:43:32.115Z,16.95
2023-08-02T21:46:01.315Z,16.94
2023-08-02T21:48:28.949Z,16.92
2023-08-02T21:50:55.823Z,16.90
2023-08-02T21:53:24.968Z,16.87
2023-08-02T21:55:56.996Z,16.85
2023-08-02T21:58:36.124Z,16.83
2023-08-02T22:01:06.091Z,16.82
2023-08-02T22:03:34.230Z,16.79
2023-08-02T22:06:03.905Z,16.77
2023-08-02T22:08:33.576Z,16.79
2023-08-02T22:11:00.440Z,16.71
2023-08-02T22:13:28.500Z,16.70
2023-08-02T22:15:55.577Z,16.68
2023-08-02T22:18:22.839Z,16.68
2023-08-02T22:20:53.557Z,16.65
2023-08-02T22:23:20.792Z,16.62
2023-08-02T22:25:47.742Z,16.60
2023-08-02T22:28:14.953Z,16.57
2023-08-02T22:30:41.902Z,16.52
2023-08-02T22:33:11.383Z,16.49
2023-08-02T22:35:38.297Z,16.46
2023-08-02T22:38:07.890Z,16.44
2023-08-02T22:40:35.773Z,16.42
2023-08-02T22:43:03.776Z,16.44
2023-08-02T22:45:30.886Z,16.50
2023-08-02T22:48:21.712Z,16.55
2023-08-02T22:50:55.210Z,16.60
2023-08-02T22:53:23.670Z,16.65
2023-08-02T22:55:51.237Z,16.69
2023-08-02T22:58:18.487Z,16.69
2023-08-02T23:00:45.450Z,16.68
2023-08-02T23:03:34.583Z,16.63
2023-08-02T23:06:01.739Z,16.63
2023-08-02T23:08:34.952Z,16.59
2023-08-02T23:11:01.997Z,16.58
2023-08-02T23:13:29.416Z,16.56
2023-08-02T23:15:56.420Z,16.56
2023-08-02T23:18:24.813Z,16.57
2023-08-02T23:20:52.398Z,16.52
2023-08-02T23:23:23.059Z,16.48
2023-08-02T23:25:52.647Z,16.42
2023-08-02T23:28:19.944Z,16.40
2023-08-02T23:30:46.888Z,16.41
2023-08-02T23:33:14.217Z,16.38
2023-08-02T23:35:41.425Z,16.36
2023-08-02T23:38:08.660Z,16.30
2023-08-02T23:40:35.660Z,16.24
2023-08-02T23:43:02.952Z,16.17
2023-08-02T23:45:30.583Z,16.10
2023-08-02T23:47:57.845Z,16.04
2023-08-02T23:50:24.957Z,15.97
2023-08-02T23:52:52.156Z,15.89
2023-08-02T23:55:19.104Z,15.82
2023-08-02T23:57:46.297Z,15.72
